sensor_id;sensor_type;location;lat;lon;timestamp;P1;durP1;ratioP1;P2;durP2;ratioP2
6519;SDS011;3293;51.690;5.982;2023-02-23T00:03:01;85.37;;;47.97;;
6519;SDS011;3293;51.690;5.982;2023-02-23T00:08:02;80.37;;;46.33;;
6519;SDS011;3293;51.690;5.982;2023-02-23T00:13:03;90.73;;;49.93;;
6519;SDS011;3293;51.690;5.982;2023-02-23T00:18:03;91.67;;;50.30;;
6519;SDS011;3293;51.690;5.982;2023-02-23T00:23:04;82.73;;;46.80;;
6519;SDS011;3293;51.690;5.982;2023-02-23T00:28:04;87.70;;;47.20;;
6519;SDS011;3293;51.690;5.982;2023-02-23T00:33:05;87.83;;;51.00;;
6519;SDS011;3293;51.690;5.982;2023-02-23T00:38:06;93.53;;;52.23;;
6519;SDS011;3293;51.690;5.982;2023-02-23T00:43:06;86.90;;;49.77;;
6519;SDS011;3293;51.690;5.982;2023-02-23T00:48:06;100.63;;;54.50;;
6519;SDS011;3293;51.690;5.982;2023-02-23T00:53:09;98.67;;;51.27;;
6519;SDS011;3293;51.690;5.982;2023-02-23T00:58:08;105.37;;;54.03;;
6519;SDS011;3293;51.690;5.982;2023-02-23T01:03:08;106.53;;;54.40;;
6519;SDS011;3293;51.690;5.982;2023-02-23T01:08:09;112.50;;;55.10;;
6519;SDS011;3293;51.690;5.982;2023-02-23T01:13:10;121.27;;;56.80;;
6519;SDS011;3293;51.690;5.982;2023-02-23T01:18:10;109.33;;;55.67;;
6519;SDS011;3293;51.690;5.982;2023-02-23T01:23:11;106.60;;;54.43;;
6519;SDS011;3293;51.690;5.982;2023-02-23T01:28:12;106.17;;;54.53;;
6519;SDS011;3293;51.690;5.982;2023-02-23T01:33:12;109.70;;;51.97;;
6519;SDS011;3293;51.690;5.982;2023-02-23T01:38:12;108.70;;;54.83;;
6519;SDS011;3293;51.690;5.982;2023-02-23T01:43:15;115.43;;;56.00;;
6519;SDS011;3293;51.690;5.982;2023-02-23T01:48:31;106.60;;;54.30;;
6519;SDS011;3293;51.690;5.982;2023-02-23T01:53:37;115.33;;;54.43;;
6519;SDS011;3293;51.690;5.982;2023-02-23T01:58:41;115.53;;;57.47;;
6519;SDS011;3293;51.690;5.982;2023-02-23T02:03:52;111.30;;;55.17;;
6519;SDS011;3293;51.690;5.982;2023-02-23T02:08:57;106.87;;;52.17;;
6519;SDS011;3293;51.690;5.982;2023-02-23T02:51:06;110.23;;;52.67;;
6519;SDS011;3293;51.690;5.982;2023-02-23T02:56:20;104.47;;;51.03;;
6519;SDS011;3293;51.690;5.982;2023-02-23T03:01:23;96.60;;;48.93;;
6519;SDS011;3293;51.690;5.982;2023-02-23T03:12:10;107.17;;;52.97;;
6519;SDS011;3293;51.690;5.982;2023-02-23T03:18:05;107.03;;;51.83;;
6519;SDS011;3293;51.690;5.982;2023-02-23T03:23:53;110.80;;;54.53;;
6519;SDS011;3293;51.690;5.982;2023-02-23T03:34:50;107.97;;;51.90;;
6519;SDS011;3293;51.690;5.982;2023-02-23T03:40:25;118.83;;;55.53;;
6519;SDS011;3293;51.690;5.982;2023-02-23T03:45:48;108.77;;;52.27;;
6519;SDS011;3293;51.690;5.982;2023-02-23T03:51:07;119.57;;;56.77;;
6519;SDS011;3293;51.690;5.982;2023-02-23T03:56:31;103.77;;;51.00;;
6519;SDS011;3293;51.690;5.982;2023-02-23T04:01:52;112.73;;;51.63;;
6519;SDS011;3293;51.690;5.982;2023-02-23T04:07:14;118.93;;;54.60;;
6519;SDS011;3293;51.690;5.982;2023-02-23T04:12:41;114.13;;;53.90;;
6519;SDS011;3293;51.690;5.982;2023-02-23T04:18:11;116.90;;;53.17;;
6519;SDS011;3293;51.690;5.982;2023-02-23T04:23:13;121.27;;;55.47;;
6519;SDS011;3293;51.690;5.982;2023-02-23T04:28:13;121.30;;;55.57;;
6519;SDS011;3293;51.690;5.982;2023-02-23T04:33:14;109.47;;;51.80;;
6519;SDS011;3293;51.690;5.982;2023-02-23T04:38:14;124.27;;;55.83;;
6519;SDS011;3293;51.690;5.982;2023-02-23T04:43:14;108.73;;;53.03;;
6519;SDS011;3293;51.690;5.982;2023-02-23T04:48:14;120.40;;;53.83;;
6519;SDS011;3293;51.690;5.982;2023-02-23T04:53:14;123.47;;;56.03;;
6519;SDS011;3293;51.690;5.982;2023-02-23T04:58:14;127.07;;;55.70;;
6519;SDS011;3293;51.690;5.982;2023-02-23T05:03:14;124.17;;;56.27;;
6519;SDS011;3293;51.690;5.982;2023-02-23T05:08:15;121.20;;;55.30;;
6519;SDS011;3293;51.690;5.982;2023-02-23T05:13:15;120.13;;;54.63;;
6519;SDS011;3293;51.690;5.982;2023-02-23T05:18:15;129.70;;;57.27;;
6519;SDS011;3293;51.690;5.982;2023-02-23T05:23:15;123.40;;;55.13;;
6519;SDS011;3293;51.690;5.982;2023-02-23T05:28:16;125.00;;;54.47;;
6519;SDS011;3293;51.690;5.982;2023-02-23T05:33:16;122.17;;;56.17;;
6519;SDS011;3293;51.690;5.982;2023-02-23T05:38:17;125.40;;;54.87;;
6519;SDS011;3293;51.690;5.982;2023-02-23T05:43:17;119.97;;;56.73;;
6519;SDS011;3293;51.690;5.982;2023-02-23T05:48:18;125.07;;;56.67;;
6519;SDS011;3293;51.690;5.982;2023-02-23T05:53:18;111.93;;;54.03;;
6519;SDS011;3293;51.690;5.982;2023-02-23T05:58:18;120.67;;;54.63;;
6519;SDS011;3293;51.690;5.982;2023-02-23T06:03:18;120.00;;;53.40;;
6519;SDS011;3293;51.690;5.982;2023-02-23T06:08:18;124.07;;;54.77;;
6519;SDS011;3293;51.690;5.982;2023-02-23T06:13:18;131.80;;;57.53;;
6519;SDS011;3293;51.690;5.982;2023-02-23T06:18:19;124.03;;;56.37;;
6519;SDS011;3293;51.690;5.982;2023-02-23T06:23:20;128.03;;;54.20;;
6519;SDS011;3293;51.690;5.982;2023-02-23T06:28:20;117.60;;;52.97;;
6519;SDS011;3293;51.690;5.982;2023-02-23T06:33:21;122.87;;;56.70;;
6519;SDS011;3293;51.690;5.982;2023-02-23T06:38:22;125.47;;;53.93;;
6519;SDS011;3293;51.690;5.982;2023-02-23T06:43:22;110.77;;;50.57;;
6519;SDS011;3293;51.690;5.982;2023-02-23T06:48:22;133.83;;;56.27;;
6519;SDS011;3293;51.690;5.982;2023-02-23T06:53:22;118.97;;;53.17;;
6519;SDS011;3293;51.690;5.982;2023-02-23T06:58:23;116.57;;;52.20;;
6519;SDS011;3293;51.690;5.982;2023-02-23T07:03:23;122.60;;;53.47;;
6519;SDS011;3293;51.690;5.982;2023-02-23T07:08:24;120.10;;;52.27;;
6519;SDS011;3293;51.690;5.982;2023-02-23T07:13:24;125.90;;;53.57;;
6519;SDS011;3293;51.690;5.982;2023-02-23T07:18:24;131.77;;;53.03;;
6519;SDS011;3293;51.690;5.982;2023-02-23T07:23:25;114.67;;;50.30;;
6519;SDS011;3293;51.690;5.982;2023-02-23T07:28:25;107.30;;;49.07;;
6519;SDS011;3293;51.690;5.982;2023-02-23T07:33:27;114.57;;;49.97;;
6519;SDS011;3293;51.690;5.982;2023-02-23T07:38:26;125.33;;;54.00;;
6519;SDS011;3293;51.690;5.982;2023-02-23T07:43:27;125.07;;;53.17;;
6519;SDS011;3293;51.690;5.982;2023-02-23T07:48:27;115.50;;;52.43;;
6519;SDS011;3293;51.690;5.982;2023-02-23T07:53:27;105.47;;;48.83;;
6519;SDS011;3293;51.690;5.982;2023-02-23T07:58:27;103.40;;;48.00;;
6519;SDS011;3293;51.690;5.982;2023-02-23T08:03:28;111.70;;;50.43;;
6519;SDS011;3293;51.690;5.982;2023-02-23T08:08:29;111.07;;;48.83;;
6519;SDS011;3293;51.690;5.982;2023-02-23T08:13:29;95.13;;;45.77;;
6519;SDS011;3293;51.690;5.982;2023-02-23T08:18:29;93.10;;;42.83;;
6519;SDS011;3293;51.690;5.982;2023-02-23T08:23:30;79.83;;;40.23;;
6519;SDS011;3293;51.690;5.982;2023-02-23T08:28:31;81.73;;;41.17;;
6519;SDS011;3293;51.690;5.982;2023-02-23T08:33:31;65.43;;;35.47;;
6519;SDS011;3293;51.690;5.982;2023-02-23T08:38:31;68.20;;;34.57;;
6519;SDS011;3293;51.690;5.982;2023-02-23T08:43:31;67.17;;;34.40;;
6519;SDS011;3293;51.690;5.982;2023-02-23T08:48:31;71.20;;;35.73;;
6519;SDS011;3293;51.690;5.982;2023-02-23T08:53:32;64.07;;;36.00;;
6519;SDS011;3293;51.690;5.982;2023-02-23T08:58:32;69.23;;;37.03;;
6519;SDS011;3293;51.690;5.982;2023-02-23T09:03:33;72.50;;;38.13;;
6519;SDS011;3293;51.690;5.982;2023-02-23T09:08:35;69.33;;;38.30;;
6519;SDS011;3293;51.690;5.982;2023-02-23T09:13:35;78.43;;;40.37;;
6519;SDS011;3293;51.690;5.982;2023-02-23T09:18:35;79.60;;;39.83;;
6519;SDS011;3293;51.690;5.982;2023-02-23T09:23:36;78.77;;;40.90;;
6519;SDS011;3293;51.690;5.982;2023-02-23T09:28:36;73.83;;;39.10;;
6519;SDS011;3293;51.690;5.982;2023-02-23T09:33:38;71.13;;;39.27;;
6519;SDS011;3293;51.690;5.982;2023-02-23T09:38:38;72.83;;;40.13;;
6519;SDS011;3293;51.690;5.982;2023-02-23T09:43:47;70.37;;;38.97;;
6519;SDS011;3293;51.690;5.982;2023-02-23T09:48:56;65.27;;;37.37;;
6519;SDS011;3293;51.690;5.982;2023-02-23T09:53:59;64.73;;;35.33;;
6519;SDS011;3293;51.690;5.982;2023-02-23T09:59:03;58.77;;;34.43;;
6519;SDS011;3293;51.690;5.982;2023-02-23T10:04:11;58.63;;;33.97;;
6519;SDS011;3293;51.690;5.982;2023-02-23T10:25:47;61.17;;;34.73;;
6519;SDS011;3293;51.690;5.982;2023-02-23T10:30:49;68.50;;;37.23;;
6519;SDS011;3293;51.690;5.982;2023-02-23T10:35:51;65.17;;;36.57;;
6519;SDS011;3293;51.690;5.982;2023-02-23T10:40:56;69.87;;;37.13;;
6519;SDS011;3293;51.690;5.982;2023-02-23T10:45:56;67.93;;;37.07;;
6519;SDS011;3293;51.690;5.982;2023-02-23T10:50:56;63.97;;;36.77;;
6519;SDS011;3293;51.690;5.982;2023-02-23T11:01:09;57.77;;;33.30;;
6519;SDS011;3293;51.690;5.982;2023-02-23T11:06:26;62.77;;;36.17;;
6519;SDS011;3293;51.690;5.982;2023-02-23T11:11:38;64.20;;;34.57;;
6519;SDS011;3293;51.690;5.982;2023-02-23T11:16:38;57.17;;;33.13;;
6519;SDS011;3293;51.690;5.982;2023-02-23T11:21:38;57.23;;;33.80;;
6519;SDS011;3293;51.690;5.982;2023-02-23T11:26:40;60.33;;;35.30;;
6519;SDS011;3293;51.690;5.982;2023-02-23T11:31:44;61.87;;;35.30;;
6519;SDS011;3293;51.690;5.982;2023-02-23T11:37:05;65.40;;;35.90;;
6519;SDS011;3293;51.690;5.982;2023-02-23T11:42:14;67.83;;;36.40;;
6519;SDS011;3293;51.690;5.982;2023-02-23T11:47:21;64.43;;;35.40;;
6519;SDS011;3293;51.690;5.982;2023-02-23T11:52:22;59.80;;;33.10;;
6519;SDS011;3293;51.690;5.982;2023-02-23T11:57:31;56.80;;;30.83;;
6519;SDS011;3293;51.690;5.982;2023-02-23T12:02:45;57.73;;;33.50;;
6519;SDS011;3293;51.690;5.982;2023-02-23T12:13:25;50.07;;;29.27;;
6519;SDS011;3293;51.690;5.982;2023-02-23T12:23:32;52.47;;;31.30;;
6519;SDS011;3293;51.690;5.982;2023-02-23T12:28:36;51.90;;;31.70;;
6519;SDS011;3293;51.690;5.982;2023-02-23T12:33:47;52.80;;;29.97;;
6519;SDS011;3293;51.690;5.982;2023-02-23T12:39:00;46.80;;;28.97;;
6519;SDS011;3293;51.690;5.982;2023-02-23T12:49:40;45.73;;;26.70;;
6519;SDS011;3293;51.690;5.982;2023-02-23T12:54:45;45.10;;;25.87;;
6519;SDS011;3293;51.690;5.982;2023-02-23T13:05:30;31.90;;;20.33;;
6519;SDS011;3293;51.690;5.982;2023-02-23T13:10:41;34.70;;;22.27;;
6519;SDS011;3293;51.690;5.982;2023-02-23T13:16:34;32.03;;;20.43;;
6519;SDS011;3293;51.690;5.982;2023-02-23T13:21:36;34.63;;;20.40;;
6519;SDS011;3293;51.690;5.982;2023-02-23T13:26:45;33.17;;;19.67;;
6519;SDS011;3293;51.690;5.982;2023-02-23T13:32:15;34.30;;;18.50;;
6519;SDS011;3293;51.690;5.982;2023-02-23T13:37:24;29.10;;;18.20;;
6519;SDS011;3293;51.690;5.982;2023-02-23T13:42:52;27.17;;;16.07;;
6519;SDS011;3293;51.690;5.982;2023-02-23T13:59:15;26.07;;;15.80;;
6519;SDS011;3293;51.690;5.982;2023-02-23T14:04:33;22.57;;;14.10;;
6519;SDS011;3293;51.690;5.982;2023-02-23T14:09:43;24.20;;;15.40;;
6519;SDS011;3293;51.690;5.982;2023-02-23T14:14:51;25.20;;;15.07;;
6519;SDS011;3293;51.690;5.982;2023-02-23T14:30:43;19.53;;;11.70;;
6519;SDS011;3293;51.690;5.982;2023-02-23T14:35:49;20.47;;;12.13;;
6519;SDS011;3293;51.690;5.982;2023-02-23T14:40:49;21.13;;;13.70;;
6519;SDS011;3293;51.690;5.982;2023-02-23T14:45:52;19.13;;;11.83;;
6519;SDS011;3293;51.690;5.982;2023-02-23T14:51:08;18.77;;;12.37;;
6519;SDS011;3293;51.690;5.982;2023-02-23T14:56:23;15.13;;;10.53;;
6519;SDS011;3293;51.690;5.982;2023-02-23T15:06:31;19.90;;;11.07;;
6519;SDS011;3293;51.690;5.982;2023-02-23T15:11:31;20.30;;;11.00;;
6519;SDS011;3293;51.690;5.982;2023-02-23T15:16:32;18.17;;;10.80;;
6519;SDS011;3293;51.690;5.982;2023-02-23T15:21:34;17.17;;;10.17;;
6519;SDS011;3293;51.690;5.982;2023-02-23T15:26:38;18.90;;;10.60;;
6519;SDS011;3293;51.690;5.982;2023-02-23T15:31:40;16.90;;;10.30;;
6519;SDS011;3293;51.690;5.982;2023-02-23T15:37:01;13.03;;;8.33;;
6519;SDS011;3293;51.690;5.982;2023-02-23T15:42:04;15.57;;;9.40;;
6519;SDS011;3293;51.690;5.982;2023-02-23T15:47:18;16.20;;;8.47;;
6519;SDS011;3293;51.690;5.982;2023-02-23T15:52:21;16.90;;;9.40;;
6519;SDS011;3293;51.690;5.982;2023-02-23T15:57:28;17.27;;;10.57;;
6519;SDS011;3293;51.690;5.982;2023-02-23T16:02:30;26.23;;;13.43;;
6519;SDS011;3293;51.690;5.982;2023-02-23T16:07:35;16.60;;;8.70;;
6519;SDS011;3293;51.690;5.982;2023-02-23T16:12:38;13.30;;;8.57;;
6519;SDS011;3293;51.690;5.982;2023-02-23T16:17:41;15.10;;;9.93;;
6519;SDS011;3293;51.690;5.982;2023-02-23T16:22:44;14.17;;;9.23;;
6519;SDS011;3293;51.690;5.982;2023-02-23T16:27:45;14.43;;;9.00;;
6519;SDS011;3293;51.690;5.982;2023-02-23T16:38:27;17.80;;;9.77;;
6519;SDS011;3293;51.690;5.982;2023-02-23T16:43:33;17.80;;;10.53;;
6519;SDS011;3293;51.690;5.982;2023-02-23T16:48:33;20.17;;;14.33;;
6519;SDS011;3293;51.690;5.982;2023-02-23T16:53:33;17.33;;;10.77;;
6519;SDS011;3293;51.690;5.982;2023-02-23T16:58:34;16.60;;;11.07;;
6519;SDS011;3293;51.690;5.982;2023-02-23T17:03:34;19.87;;;10.43;;
6519;SDS011;3293;51.690;5.982;2023-02-23T17:08:34;13.67;;;8.73;;
6519;SDS011;3293;51.690;5.982;2023-02-23T17:13:34;19.50;;;11.37;;
6519;SDS011;3293;51.690;5.982;2023-02-23T17:18:35;17.37;;;11.27;;
6519;SDS011;3293;51.690;5.982;2023-02-23T17:23:37;20.83;;;10.77;;
6519;SDS011;3293;51.690;5.982;2023-02-23T17:28:49;24.60;;;11.77;;
6519;SDS011;3293;51.690;5.982;2023-02-23T17:33:50;20.97;;;12.63;;
6519;SDS011;3293;51.690;5.982;2023-02-23T17:38:50;19.70;;;11.70;;
6519;SDS011;3293;51.690;5.982;2023-02-23T17:43:56;19.03;;;11.50;;
6519;SDS011;3293;51.690;5.982;2023-02-23T17:48:56;23.57;;;12.83;;
6519;SDS011;3293;51.690;5.982;2023-02-23T17:53:56;21.00;;;11.90;;
6519;SDS011;3293;51.690;5.982;2023-02-23T17:58:56;22.63;;;13.17;;
6519;SDS011;3293;51.690;5.982;2023-02-23T18:03:56;20.23;;;12.17;;
6519;SDS011;3293;51.690;5.982;2023-02-23T18:08:58;20.17;;;12.17;;
6519;SDS011;3293;51.690;5.982;2023-02-23T18:14:00;19.93;;;12.93;;
6519;SDS011;3293;51.690;5.982;2023-02-23T18:19:02;17.50;;;10.97;;
6519;SDS011;3293;51.690;5.982;2023-02-23T18:24:02;21.13;;;12.83;;
6519;SDS011;3293;51.690;5.982;2023-02-23T18:29:02;18.97;;;11.60;;
6519;SDS011;3293;51.690;5.982;2023-02-23T18:34:03;25.63;;;12.83;;
6519;SDS011;3293;51.690;5.982;2023-02-23T18:39:04;23.93;;;12.63;;
6519;SDS011;3293;51.690;5.982;2023-02-23T18:44:06;29.77;;;15.50;;
6519;SDS011;3293;51.690;5.982;2023-02-23T18:49:10;26.83;;;13.03;;
6519;SDS011;3293;51.690;5.982;2023-02-23T18:54:15;23.47;;;11.23;;
6519;SDS011;3293;51.690;5.982;2023-02-23T18:59:16;19.27;;;10.10;;
6519;SDS011;3293;51.690;5.982;2023-02-23T19:04:16;30.77;;;13.43;;
6519;SDS011;3293;51.690;5.982;2023-02-23T19:09:16;24.03;;;11.37;;
6519;SDS011;3293;51.690;5.982;2023-02-23T19:14:19;22.77;;;10.50;;
6519;SDS011;3293;51.690;5.982;2023-02-23T19:19:20;17.07;;;8.17;;
6519;SDS011;3293;51.690;5.982;2023-02-23T19:24:19;24.17;;;7.43;;
6519;SDS011;3293;51.690;5.982;2023-02-23T19:29:19;15.60;;;5.70;;
6519;SDS011;3293;51.690;5.982;2023-02-23T19:34:19;28.03;;;6.27;;
6519;SDS011;3293;51.690;5.982;2023-02-23T19:39:19;19.43;;;5.73;;
6519;SDS011;3293;51.690;5.982;2023-02-23T19:44:19;18.93;;;5.47;;
6519;SDS011;3293;51.690;5.982;2023-02-23T19:49:19;22.80;;;5.03;;
6519;SDS011;3293;51.690;5.982;2023-02-23T19:54:19;22.73;;;6.93;;
6519;SDS011;3293;51.690;5.982;2023-02-23T19:59:19;17.13;;;5.43;;
6519;SDS011;3293;51.690;5.982;2023-02-23T20:04:19;22.20;;;5.07;;
6519;SDS011;3293;51.690;5.982;2023-02-23T20:09:19;28.23;;;5.70;;
6519;SDS011;3293;51.690;5.982;2023-02-23T20:14:19;19.63;;;5.57;;
6519;SDS011;3293;51.690;5.982;2023-02-23T20:19:19;18.70;;;6.10;;
6519;SDS011;3293;51.690;5.982;2023-02-23T20:24:20;15.57;;;5.37;;
6519;SDS011;3293;51.690;5.982;2023-02-23T20:29:19;18.60;;;5.67;;
6519;SDS011;3293;51.690;5.982;2023-02-23T20:34:21;22.17;;;5.37;;
6519;SDS011;3293;51.690;5.982;2023-02-23T20:39:22;18.33;;;5.90;;
6519;SDS011;3293;51.690;5.982;2023-02-23T20:44:23;18.43;;;5.83;;
6519;SDS011;3293;51.690;5.982;2023-02-23T20:49:23;16.30;;;6.50;;
6519;SDS011;3293;51.690;5.982;2023-02-23T20:54:25;26.87;;;6.30;;
6519;SDS011;3293;51.690;5.982;2023-02-23T20:59:26;23.47;;;6.97;;
6519;SDS011;3293;51.690;5.982;2023-02-23T21:04:29;18.23;;;6.43;;
6519;SDS011;3293;51.690;5.982;2023-02-23T21:09:31;21.67;;;6.40;;
6519;SDS011;3293;51.690;5.982;2023-02-23T21:14:31;24.70;;;7.60;;
6519;SDS011;3293;51.690;5.982;2023-02-23T21:19:31;24.47;;;9.87;;
6519;SDS011;3293;51.690;5.982;2023-02-23T21:24:31;23.57;;;5.83;;
6519;SDS011;3293;51.690;5.982;2023-02-23T21:29:33;21.80;;;5.80;;
6519;SDS011;3293;51.690;5.982;2023-02-23T21:34:33;23.70;;;5.97;;
6519;SDS011;3293;51.690;5.982;2023-02-23T21:39:33;19.90;;;4.93;;
6519;SDS011;3293;51.690;5.982;2023-02-23T21:44:33;20.37;;;5.77;;
6519;SDS011;3293;51.690;5.982;2023-02-23T21:49:33;17.27;;;5.17;;
6519;SDS011;3293;51.690;5.982;2023-02-23T21:54:34;16.27;;;5.67;;
6519;SDS011;3293;51.690;5.982;2023-02-23T21:59:35;16.13;;;5.83;;
6519;SDS011;3293;51.690;5.982;2023-02-23T22:04:35;25.80;;;5.43;;
6519;SDS011;3293;51.690;5.982;2023-02-23T22:09:35;15.23;;;4.83;;
6519;SDS011;3293;51.690;5.982;2023-02-23T22:14:35;18.07;;;5.10;;
6519;SDS011;3293;51.690;5.982;2023-02-23T22:19:35;25.43;;;6.87;;
6519;SDS011;3293;51.690;5.982;2023-02-23T22:24:35;23.70;;;8.37;;
6519;SDS011;3293;51.690;5.982;2023-02-23T22:29:35;22.80;;;8.00;;
6519;SDS011;3293;51.690;5.982;2023-02-23T22:34:35;22.83;;;7.17;;
6519;SDS011;3293;51.690;5.982;2023-02-23T22:39:35;22.27;;;6.90;;
6519;SDS011;3293;51.690;5.982;2023-02-23T22:44:40;24.20;;;8.13;;
6519;SDS011;3293;51.690;5.982;2023-02-23T22:49:40;23.50;;;7.83;;
6519;SDS011;3293;51.690;5.982;2023-02-23T22:54:40;23.63;;;7.50;;
6519;SDS011;3293;51.690;5.982;2023-02-23T22:59:44;21.13;;;6.70;;
6519;SDS011;3293;51.690;5.982;2023-02-23T23:04:53;19.23;;;7.20;;
6519;SDS011;3293;51.690;5.982;2023-02-23T23:09:53;19.17;;;6.87;;
6519;SDS011;3293;51.690;5.982;2023-02-23T23:14:54;23.53;;;6.67;;
6519;SDS011;3293;51.690;5.982;2023-02-23T23:19:55;17.97;;;6.80;;
6519;SDS011;3293;51.690;5.982;2023-02-23T23:24:56;22.43;;;7.07;;
6519;SDS011;3293;51.690;5.982;2023-02-23T23:29:56;18.60;;;6.37;;
6519;SDS011;3293;51.690;5.982;2023-02-23T23:34:56;20.00;;;6.60;;
6519;SDS011;3293;51.690;5.982;2023-02-23T23:39:58;14.50;;;4.80;;
6519;SDS011;3293;51.690;5.982;2023-02-23T23:45:02;22.57;;;6.70;;
6519;SDS011;3293;51.690;5.982;2023-02-23T23:50:04;20.10;;;6.27;;
6519;SDS011;3293;51.690;5.982;2023-02-23T23:55:10;23.03;;;6.00;;
